CheckWX is a tool to help pilots better visualize weather data.  It is not intended as a substitute for an official pre-flight weather briefing.

14:00:47 UTC

DNAA METAR
Nnamdi Azikiwe International Airport
Abuja, Nigeria
Current

1 hour ago

DNAA 211300Z 28004KT 200V320 9999 SCT013 31/22 Q1013 NOSIG
Observed
Sep-21 @ 13:00 UTC
Wind
  • 280° at 4 KTS
Visibility
10,000+ meters
Flight Rules
VFR
Cloud Levels
  • Scattered at 1,300' AGL
Temperature
31°C / 88°F
Dewpoint
22°C / 72°F
Heat Index
35°C / 95°F
Humidity
59%
Altimeter
29.91" Hg
Pressure
1012.92 hPa
Previous

2 hours ago

DNAA 211200Z 26006KT 220V320 9999 SCT013 31/22 Q1014 NOSIG
Observed
Sep-21 @ 12:00 UTC
Wind
  • 260° at 6 KTS
Visibility
10,000+ meters
Flight Rules
VFR
Cloud Levels
  • Scattered at 1,300' AGL
Temperature
31°C / 88°F
Dewpoint
22°C / 72°F
Heat Index
35°C / 95°F
Humidity
59%
Altimeter
29.94" Hg
Pressure
1013.92 hPa
Previous

3 hours ago

DNAA 211100Z 26005KT 210V300 9999 BKN012 30/22 Q1015 NOSIG
Observed
Sep-21 @ 11:00 UTC
Wind
  • 260° at 5 KTS
Visibility
10,000+ meters
Flight Rules
MVFR
Cloud Levels
  • Broken at 1,200' AGL
Temperature
30°C / 86°F
Dewpoint
22°C / 72°F
Heat Index
33°C / 92°F
Humidity
62%
Altimeter
29.97" Hg
Pressure
1014.92 hPa